Pagrindinis puslapis
METAR-TAF:

METAR-TAF

Oro uostai :

Clark's Point, Aliaska, Jungtinės Amerikos Valstijos

platuma: 58-50-01N, ilguma: 158-31-46W, Aukštis: 24 m

Dabartinis oras

Ataskaita buvo paskelbta 59 minutes, ne 20:56 UTC
Vėjas 4 kt iš Pietvakarių
Temperatūra 10°C
Drėgmė 57%
Slėgis 1006 hPa
Matomumas: 16.1 km
Su prošvaistėmis ne aukštis 4800 ft

METAR: PFCL 212056Z AUTO 22004KT 10SM BKN048 10/02 A2970 RMK AO2 SLP052 T01000022 58003 TSNO

Laikas: 13:55 (21:55 UTC)


TAF: trūkstamas

Orai ataskaitas ir orų prognozės (METAR, TAF).

turimą stotys yra geltonos ir raudonos taškus žemėlapyje.

Perkelti pele per norėdami pamatyti stoties vardą.

Tada spustelėkite, norėdami matyti oro stebėjimo ir prognozės.

Norėdami pakeisti žemėlapį: spustelėkite ant žalios mygtukų su juodo kryžiaus žemyn,; žalią mygtuką su brūkšneliu, jei norite nutolinti; arba žalių rodyklių gretimoms žemėlapius.


METAR-TAF: